Historyczne dane pomiarowe

Dodano dane terminowe – wersja testowa.

Dane z okresu 1951-2019

Wersja bazy: 1.34 [2019-03-16, lista zmian], aktualizacja planowana na 2019-04-15

Dane meteo z obszaru Polski uzyskane na podstawie danych udostępnionych przez Instytut Meteorologii i Gospodarki Wodnej – Państwowy Instytut Badawczy.

 

Wybierz Datę:    

       

TemperaturaWilgotnośćWiatrCiśnienieOpadyŚniegCzas trwania zjawisk
 Stacja t tx tn tng RH VA  wxwx mslp ppp RRR   cm mm wxwxwxwxwxwxwx
1987-08-14 12.6 16.8 6.8 3.2-- 7.3 3.7---- 8.0------------
1987-08-13 13.5 20.0 5.7 2.6-- 3.7 3.3---- 0.0------------
1987-08-12 12.5 16.8 6.1 2.1-- 4.3 2.0---- 0.0------------
1987-08-11 13.4 18.0 9.5 5.6-- 4.3 5.0---- 0.0------------
1987-08-10 14.3 20.0 12.0 10.5-- 6.7 4.3---- 1.8------------
1987-08-09 17.7 24.5 10.5 7.6-- 5.0 4.0---- 3.1------------
1987-08-08 14.4 21.4 7.4 3.2-- 5.0 4.0---- 0.0------------
1987-08-07 10.5 15.4 5.2 0.4-- 7.7 2.3---- 5.2------------
1987-08-06 11.3 16.5 8.2 3.4-- 5.3 3.3---- 0.8------------
1987-08-05 11.6 17.0 6.6 3.8-- 7.7 2.7---- 3.8------------
1987-08-04 15.1 18.0 14.3 11.0-- 6.0 4.7---- 2.0------------
1987-08-03 15.0 20.4 9.7 5.7-- 6.0 1.3---- 0.8------------
1987-08-02 15.1 19.4 10.5 9.5-- 7.0 5.0---- 2.0------------
1987-08-01 15.3 21.0 11.4 8.1-- 8.0 4.3---- 1.5------------
1987-07-31 15.3 21.4 12.8 11.6-- 7.3 5.0---- 2.8------------
1987-07-30 18.4 24.5 8.6 6.0-- 4.3 1.7---- 9.3------------
1987-07-29 14.7 20.0 9.0 6.6-- 7.7 0.7---- 0.0------------
1987-07-28 13.2 15.4 12.0 11.0-- 7.7 5.3---- 1.4------------
1987-07-27 12.6 17.5 6.6 6.0-- 6.0 6.0---- 1.5------------
1987-07-26 12.8 18.2 11.6 12.0-- 8.0 4.3---- 3.7------------
1987-07-25 18.8 24.2 13.7 14.0-- 7.0 5.7---- 3.9------------
1987-07-24 20.0 25.7 16.8 15.1-- 7.0 1.7---- 7.0------------
1987-07-23 20.6 27.6 12.6 10.2-- 4.7 2.3---- 0.3------------
1987-07-22 18.9 23.5 15.3 15.4-- 4.7 2.0---- 0.0------------
1987-07-21 19.3 25.1 12.1 9.4-- 7.3 1.7---- 22.5------------
1987-07-20 19.0 22.2 15.8 15.9-- 4.0 2.0---- 0.0------------
1987-07-19 21.1 26.3 18.9 18.7-- 6.7 3.7---- 5.0------------
1987-07-18 24.1 29.5 16.4 13.5-- 2.3 2.0---- 0.1------------
1987-07-17 24.9 29.5 18.5 15.5-- 2.3 4.0---- 0.0------------
1987-07-16 21.7 29.7 14.3 10.0-- 4.0 0.7---- 5.3------------
1987-07-15 18.6 24.2 11.1 6.5-- 2.3 4.0---- 0.0------------
1987-07-14 15.8 21.2 7.6 4.2-- 1.0 1.0---- 0.0------------
1987-07-13 17.8 22.0 14.1 10.2-- 6.0 3.0---- 0.0------------
1987-07-12 20.1 27.3 15.2 10.3-- 5.7 5.7---- 9.8------------
1987-07-11 16.5 23.8 7.4 4.0-- 2.0 3.7---- 0.0------------
1987-07-10 14.4 19.0 9.5 10.0-- 4.3 4.7---- 0.0------------
1987-07-09 16.9 24.2 14.1 13.5-- 8.0 2.0---- 10.0------------
1987-07-08 21.3 27.1 13.5 9.0-- 2.7 3.3---- 2.2------------
1987-07-07 19.2 26.6 8.1 5.0-- 0.0 1.7---- 0.0------------
1987-07-06 18.5 24.0 9.0 6.0-- 1.0 1.7---- 0.0------------
1987-07-05 15.6 19.8 10.3 8.0-- 6.0 4.0---- 0.0------------
1987-07-04 18.7 23.4 11.8 9.5-- 3.7 4.0---- 0.0------------
1987-07-03 18.4 22.0 14.2 12.5-- 8.0 1.0---- 0.0------------
1987-07-02 18.0 24.6 16.8 16.5-- 7.3 2.7---- 0.0------------
1987-07-01 24.1 29.1 18.9 5.2-- 0.3 3.3---- 0.0------------
1987-06-30 23.2 29.1 14.7 13.0-- 0.0 2.0---- 0.0------------
1987-06-29 21.2 29.1 16.4 14.2-- 2.7 1.3---- 0.0------------
1987-06-28 18.0 24.0 9.5 8.0-- 6.3 3.0---- 0.0------------
1987-06-27 16.7 20.4 14.2 12.5-- 8.0 2.7---- 0.6------------
1987-06-26 17.0 23.5 9.1 6.5-- 7.0 3.7---- 9.8------------
1987-06-25 14.2 17.0 12.6 11.5-- 6.0 4.0---- 0.0------------
1987-06-24 15.6 20.5 11.6 9.5-- 7.0 5.0---- 3.1------------
1987-06-23 15.3 20.0 11.6 12.0-- 7.7 1.3---- 0.4------------
1987-06-22 14.5 18.2 11.8 11.0-- 8.0 7.3---- 0.0------------
1987-06-21 15.9 23.0 8.8 6.2-- 5.7 1.0---- 0.3------------
1987-06-20 15.1 21.0 8.9 5.5-- 6.7 2.0---- 0.0------------
1987-06-19 12.6 17.6 6.6 5.0-- 5.0 3.3---- 0.0------------
1987-06-18 10.3 14.0 7.0 4.8-- 7.0 7.0---- 0.3------------
1987-06-17 11.7 15.4 8.4 7.0-- 4.3 4.0---- 0.0------------
1987-06-16 13.3 23.0 9.5 10.2-- 6.3 7.0---- 4.0------------
396.9 ms

 

Źródłem pochodzenia danych jest Instytut Meteorologii i Gospodarki Wodnej – Państwowy Instytut Badawczy. Dane Instytutu Meteorologii i Gospodarki Wodnej – Państwowego Instytutu Badawczego zostały przetworzone.

Dane źródłowe można odnaleźć na stronie https://dane.imgw.pl